sensor_id;sensor_type;location;lat;lon;timestamp;pressure;altitude;pressure_sealevel;temperature;humidity
11971;BME280;6045;42.682;23.294;2023-07-31T00:01:39;94313.00;;;24.30;65.55
11971;BME280;6045;42.682;23.294;2023-07-31T00:04:06;94311.38;;;24.46;64.98
11971;BME280;6045;42.682;23.294;2023-07-31T00:06:32;94313.41;;;24.67;63.77
11971;BME280;6045;42.682;23.294;2023-07-31T00:08:59;94317.16;;;24.54;63.06
11971;BME280;6045;42.682;23.294;2023-07-31T00:11:28;94321.94;;;24.57;64.35
11971;BME280;6045;42.682;23.294;2023-07-31T00:13:54;94317.28;;;24.57;63.65
11971;BME280;6045;42.682;23.294;2023-07-31T00:16:21;94317.44;;;24.52;64.05
11971;BME280;6045;42.682;23.294;2023-07-31T00:18:48;94314.25;;;24.41;63.71
11971;BME280;6045;42.682;23.294;2023-07-31T00:21:15;94318.91;;;24.41;64.48
11971;BME280;6045;42.682;23.294;2023-07-31T00:23:41;94314.44;;;24.36;65.33
11971;BME280;6045;42.682;23.294;2023-07-31T00:26:08;94305.28;;;24.32;66.21
11971;BME280;6045;42.682;23.294;2023-07-31T00:28:36;94300.31;;;24.17;68.35
11971;BME280;6045;42.682;23.294;2023-07-31T00:31:03;94290.81;;;24.15;67.24
11971;BME280;6045;42.682;23.294;2023-07-31T00:33:31;94285.50;;;24.35;68.21
11971;BME280;6045;42.682;23.294;2023-07-31T00:35:57;94283.56;;;24.44;67.27
11971;BME280;6045;42.682;23.294;2023-07-31T00:38:24;94273.88;;;24.56;66.42
11971;BME280;6045;42.682;23.294;2023-07-31T00:40:51;94273.22;;;24.67;66.63
11971;BME280;6045;42.682;23.294;2023-07-31T00:43:18;94271.59;;;24.66;67.16
11971;BME280;6045;42.682;23.294;2023-07-31T00:45:46;94278.84;;;24.62;67.15
11971;BME280;6045;42.682;23.294;2023-07-31T00:48:13;94290.31;;;24.47;68.60
11971;BME280;6045;42.682;23.294;2023-07-31T00:50:39;94282.13;;;24.38;67.92
11971;BME280;6045;42.682;23.294;2023-07-31T00:53:06;94285.19;;;24.37;68.02
11971;BME280;6045;42.682;23.294;2023-07-31T00:55:33;94290.84;;;24.23;68.10
11971;BME280;6045;42.682;23.294;2023-07-31T00:58:00;94278.91;;;24.19;68.38
11971;BME280;6045;42.682;23.294;2023-07-31T01:00:27;94272.16;;;24.34;68.22
11971;BME280;6045;42.682;23.294;2023-07-31T01:02:55;94268.97;;;24.23;68.11
11971;BME280;6045;42.682;23.294;2023-07-31T01:05:28;94267.34;;;23.79;69.40
11971;BME280;6045;42.682;23.294;2023-07-31T01:08:04;94272.28;;;23.60;70.24
11971;BME280;6045;42.682;23.294;2023-07-31T01:10:41;94269.72;;;23.38;70.98
11971;BME280;6045;42.682;23.294;2023-07-31T01:13:10;94278.97;;;23.29;72.06
11971;BME280;6045;42.682;23.294;2023-07-31T01:15:37;94269.63;;;23.30;72.08
11971;BME280;6045;42.682;23.294;2023-07-31T01:18:05;94267.78;;;23.47;72.04
11971;BME280;6045;42.682;23.294;2023-07-31T01:20:33;94260.28;;;23.61;71.21
11971;BME280;6045;42.682;23.294;2023-07-31T01:23:26;94262.47;;;23.42;71.79
11971;BME280;6045;42.682;23.294;2023-07-31T01:26:05;94257.44;;;23.27;72.26
11971;BME280;6045;42.682;23.294;2023-07-31T01:28:43;94254.56;;;23.32;72.45
11971;BME280;6045;42.682;23.294;2023-07-31T01:31:16;94260.16;;;23.27;72.68
11971;BME280;6045;42.682;23.294;2023-07-31T01:33:45;94258.03;;;22.98;73.36
11971;BME280;6045;42.682;23.294;2023-07-31T01:36:12;94249.31;;;22.96;74.52
11971;BME280;6045;42.682;23.294;2023-07-31T01:38:40;94259.88;;;22.89;74.43
11971;BME280;6045;42.682;23.294;2023-07-31T01:41:08;94262.22;;;22.65;75.41
11971;BME280;6045;42.682;23.294;2023-07-31T01:43:34;94246.84;;;22.47;76.06
11971;BME280;6045;42.682;23.294;2023-07-31T01:46:01;94255.22;;;22.51;76.64
11971;BME280;6045;42.682;23.294;2023-07-31T01:48:28;94252.94;;;22.44;76.81
11971;BME280;6045;42.682;23.294;2023-07-31T01:51:00;94251.19;;;22.48;76.95
11971;BME280;6045;42.682;23.294;2023-07-31T01:53:27;94256.78;;;22.74;75.29
11971;BME280;6045;42.682;23.294;2023-07-31T01:55:54;94266.34;;;22.93;75.71
11971;BME280;6045;42.682;23.294;2023-07-31T01:58:22;94269.22;;;22.97;75.41
11971;BME280;6045;42.682;23.294;2023-07-31T02:00:49;94260.09;;;23.01;74.99
11971;BME280;6045;42.682;23.294;2023-07-31T02:03:16;94259.97;;;23.06;74.63
11971;BME280;6045;42.682;23.294;2023-07-31T02:05:46;94263.97;;;23.00;74.52
11971;BME280;6045;42.682;23.294;2023-07-31T02:08:13;94269.06;;;22.93;75.38
11971;BME280;6045;42.682;23.294;2023-07-31T02:10:40;94256.88;;;22.99;75.28
11971;BME280;6045;42.682;23.294;2023-07-31T02:13:07;94263.44;;;22.90;74.41
11971;BME280;6045;42.682;23.294;2023-07-31T02:15:35;94271.81;;;23.02;74.76
11971;BME280;6045;42.682;23.294;2023-07-31T02:18:02;94271.66;;;23.07;74.25
11971;BME280;6045;42.682;23.294;2023-07-31T02:20:28;94271.47;;;22.95;75.95
11971;BME280;6045;42.682;23.294;2023-07-31T02:22:55;94264.97;;;22.74;76.41
11971;BME280;6045;42.682;23.294;2023-07-31T02:25:22;94271.44;;;22.56;78.02
11971;BME280;6045;42.682;23.294;2023-07-31T02:27:49;94276.94;;;22.64;76.54
11971;BME280;6045;42.682;23.294;2023-07-31T02:30:16;94271.22;;;22.74;76.07
11971;BME280;6045;42.682;23.294;2023-07-31T02:32:44;94276.44;;;23.01;75.51
11971;BME280;6045;42.682;23.294;2023-07-31T02:35:10;94273.03;;;23.27;74.78
11971;BME280;6045;42.682;23.294;2023-07-31T02:37:40;94268.53;;;23.31;74.72
11971;BME280;6045;42.682;23.294;2023-07-31T02:40:08;94263.78;;;23.36;74.49
11971;BME280;6045;42.682;23.294;2023-07-31T02:42:35;94269.38;;;23.48;73.07
11971;BME280;6045;42.682;23.294;2023-07-31T02:45:01;94271.19;;;23.53;72.77
11971;BME280;6045;42.682;23.294;2023-07-31T02:47:28;94281.09;;;23.49;72.62
11971;BME280;6045;42.682;23.294;2023-07-31T02:49:56;94286.91;;;23.47;72.99
11971;BME280;6045;42.682;23.294;2023-07-31T02:52:23;94278.56;;;23.61;72.53
11971;BME280;6045;42.682;23.294;2023-07-31T02:54:50;94282.44;;;23.77;71.78
11971;BME280;6045;42.682;23.294;2023-07-31T02:57:16;94286.75;;;23.61;72.38
11971;BME280;6045;42.682;23.294;2023-07-31T02:59:43;94295.75;;;23.53;72.48
11971;BME280;6045;42.682;23.294;2023-07-31T03:02:10;94295.91;;;23.65;71.89
11971;BME280;6045;42.682;23.294;2023-07-31T03:04:37;94291.41;;;23.86;71.50
11971;BME280;6045;42.682;23.294;2023-07-31T03:07:06;94295.78;;;23.87;71.32
11971;BME280;6045;42.682;23.294;2023-07-31T03:09:33;94293.22;;;23.99;70.73
11971;BME280;6045;42.682;23.294;2023-07-31T03:11:59;94299.00;;;24.15;69.52
11971;BME280;6045;42.682;23.294;2023-07-31T03:14:28;94300.28;;;24.34;69.08
11971;BME280;6045;42.682;23.294;2023-07-31T03:16:55;94303.66;;;24.48;68.60
11971;BME280;6045;42.682;23.294;2023-07-31T03:19:22;94303.44;;;24.62;68.31
11971;BME280;6045;42.682;23.294;2023-07-31T03:21:48;94301.84;;;24.70;68.33
11971;BME280;6045;42.682;23.294;2023-07-31T03:24:17;94301.34;;;24.68;67.75
11971;BME280;6045;42.682;23.294;2023-07-31T03:26:44;94300.72;;;24.62;68.46
11971;BME280;6045;42.682;23.294;2023-07-31T03:29:10;94305.53;;;24.57;68.29
11971;BME280;6045;42.682;23.294;2023-07-31T03:31:39;94307.34;;;24.35;68.81
11971;BME280;6045;42.682;23.294;2023-07-31T03:34:05;94309.13;;;24.14;69.80
11971;BME280;6045;42.682;23.294;2023-07-31T03:36:35;94311.38;;;24.04;70.04
11971;BME280;6045;42.682;23.294;2023-07-31T03:39:02;94318.72;;;23.86;71.05
11971;BME280;6045;42.682;23.294;2023-07-31T03:41:30;94310.06;;;23.84;70.86
11971;BME280;6045;42.682;23.294;2023-07-31T03:43:57;94323.22;;;23.82;70.99
11971;BME280;6045;42.682;23.294;2023-07-31T03:46:24;94322.41;;;23.73;71.53
11971;BME280;6045;42.682;23.294;2023-07-31T03:48:51;94325.13;;;23.64;71.49
11971;BME280;6045;42.682;23.294;2023-07-31T03:51:18;94321.91;;;23.54;71.27
11971;BME280;6045;42.682;23.294;2023-07-31T03:53:44;94336.00;;;23.56;71.92
11971;BME280;6045;42.682;23.294;2023-07-31T03:56:11;94327.97;;;23.51;71.59
11971;BME280;6045;42.682;23.294;2023-07-31T03:58:39;94330.75;;;23.68;71.92
11971;BME280;6045;42.682;23.294;2023-07-31T04:01:06;94335.63;;;23.97;70.23
11971;BME280;6045;42.682;23.294;2023-07-31T04:03:33;94333.38;;;23.99;70.58
11971;BME280;6045;42.682;23.294;2023-07-31T04:06:00;94344.94;;;24.04;70.31
11971;BME280;6045;42.682;23.294;2023-07-31T04:08:26;94337.84;;;23.77;70.49
11971;BME280;6045;42.682;23.294;2023-07-31T04:10:53;94338.78;;;23.64;71.22
11971;BME280;6045;42.682;23.294;2023-07-31T04:13:21;94340.69;;;23.64;71.36
11971;BME280;6045;42.682;23.294;2023-07-31T04:15:50;94339.22;;;23.58;71.97
11971;BME280;6045;42.682;23.294;2023-07-31T04:18:17;94343.78;;;23.71;71.00
11971;BME280;6045;42.682;23.294;2023-07-31T04:20:44;94338.00;;;23.81;70.41
11971;BME280;6045;42.682;23.294;2023-07-31T04:23:11;94334.00;;;23.87;70.64
11971;BME280;6045;42.682;23.294;2023-07-31T04:25:40;94339.75;;;23.60;70.97
11971;BME280;6045;42.682;23.294;2023-07-31T04:28:07;94353.25;;;23.34;71.22
11971;BME280;6045;42.682;23.294;2023-07-31T04:30:33;94345.34;;;23.55;71.67
11971;BME280;6045;42.682;23.294;2023-07-31T04:33:03;94350.03;;;23.71;70.80
11971;BME280;6045;42.682;23.294;2023-07-31T04:35:29;94345.41;;;23.89;70.38
11971;BME280;6045;42.682;23.294;2023-07-31T04:38:10;94346.88;;;24.12;69.61
11971;BME280;6045;42.682;23.294;2023-07-31T04:40:37;94344.94;;;24.04;69.35
11971;BME280;6045;42.682;23.294;2023-07-31T04:43:03;94344.25;;;23.81;69.81
11971;BME280;6045;42.682;23.294;2023-07-31T04:45:32;94340.38;;;23.65;70.96
11971;BME280;6045;42.682;23.294;2023-07-31T04:47:59;94343.78;;;23.71;70.29
11971;BME280;6045;42.682;23.294;2023-07-31T04:50:27;94341.56;;;23.90;70.91
11971;BME280;6045;42.682;23.294;2023-07-31T04:52:56;94341.88;;;23.97;69.66
11971;BME280;6045;42.682;23.294;2023-07-31T04:55:23;94340.59;;;24.03;69.27
11971;BME280;6045;42.682;23.294;2023-07-31T04:57:50;94333.56;;;24.19;69.60
11971;BME280;6045;42.682;23.294;2023-07-31T05:00:17;94338.06;;;24.15;68.74
11971;BME280;6045;42.682;23.294;2023-07-31T05:02:44;94343.69;;;24.19;69.22
11971;BME280;6045;42.682;23.294;2023-07-31T05:05:10;94333.22;;;23.95;68.78
11971;BME280;6045;42.682;23.294;2023-07-31T05:07:39;94334.16;;;23.82;70.47
11971;BME280;6045;42.682;23.294;2023-07-31T05:10:06;94335.50;;;24.19;70.86
11971;BME280;6045;42.682;23.294;2023-07-31T05:12:33;94348.34;;;24.61;70.40
11971;BME280;6045;42.682;23.294;2023-07-31T05:15:00;94346.19;;;25.01;67.20
11971;BME280;6045;42.682;23.294;2023-07-31T05:17:27;94336.81;;;25.10;66.21
11971;BME280;6045;42.682;23.294;2023-07-31T05:19:53;94343.88;;;25.20;64.68
11971;BME280;6045;42.682;23.294;2023-07-31T05:22:20;94340.03;;;25.12;65.06
11971;BME280;6045;42.682;23.294;2023-07-31T05:24:48;94345.78;;;25.20;64.66
11971;BME280;6045;42.682;23.294;2023-07-31T05:27:15;94342.38;;;25.31;64.96
11971;BME280;6045;42.682;23.294;2023-07-31T05:29:43;94347.31;;;25.38;64.90
11971;BME280;6045;42.682;23.294;2023-07-31T05:32:10;94335.84;;;25.06;64.62
11971;BME280;6045;42.682;23.294;2023-07-31T05:34:37;94337.38;;;24.87;65.24
11971;BME280;6045;42.682;23.294;2023-07-31T05:37:05;94340.91;;;24.70;65.96
11971;BME280;6045;42.682;23.294;2023-07-31T05:39:32;94338.81;;;24.84;64.39
11971;BME280;6045;42.682;23.294;2023-07-31T05:42:00;94331.81;;;25.04;65.29
11971;BME280;6045;42.682;23.294;2023-07-31T05:44:27;94333.78;;;25.41;64.33
11971;BME280;6045;42.682;23.294;2023-07-31T05:46:54;94335.94;;;25.65;62.34
11971;BME280;6045;42.682;23.294;2023-07-31T05:49:20;94340.47;;;25.90;62.31
11971;BME280;6045;42.682;23.294;2023-07-31T05:51:47;94332.44;;;25.85;60.95
11971;BME280;6045;42.682;23.294;2023-07-31T05:54:16;94340.13;;;25.92;60.10
11971;BME280;6045;42.682;23.294;2023-07-31T05:56:43;94341.75;;;25.93;60.89
11971;BME280;6045;42.682;23.294;2023-07-31T05:59:12;94340.28;;;25.95;60.56
11971;BME280;6045;42.682;23.294;2023-07-31T06:01:39;94346.66;;;26.28;58.64
11971;BME280;6045;42.682;23.294;2023-07-31T06:04:06;94347.38;;;26.17;57.66
11971;BME280;6045;42.682;23.294;2023-07-31T06:06:32;94350.28;;;26.20;58.77
11971;BME280;6045;42.682;23.294;2023-07-31T06:08:59;94355.41;;;26.22;56.58
11971;BME280;6045;42.682;23.294;2023-07-31T06:11:26;94354.91;;;26.28;56.22
11971;BME280;6045;42.682;23.294;2023-07-31T06:13:53;94365.47;;;26.09;55.96
11971;BME280;6045;42.682;23.294;2023-07-31T06:16:22;94357.88;;;26.15;56.87
11971;BME280;6045;42.682;23.294;2023-07-31T06:18:49;94356.84;;;25.99;55.42
11971;BME280;6045;42.682;23.294;2023-07-31T06:21:16;94357.16;;;25.76;56.03
11971;BME280;6045;42.682;23.294;2023-07-31T06:23:43;94361.50;;;25.98;57.08
11971;BME280;6045;42.682;23.294;2023-07-31T06:26:10;94359.03;;;26.14;56.31
11971;BME280;6045;42.682;23.294;2023-07-31T06:28:37;94365.59;;;26.42;55.90
11971;BME280;6045;42.682;23.294;2023-07-31T06:31:03;94360.63;;;26.15;55.81
11971;BME280;6045;42.682;23.294;2023-07-31T06:33:31;94370.38;;;26.45;56.16
11971;BME280;6045;42.682;23.294;2023-07-31T06:35:58;94365.31;;;26.35;54.75
11971;BME280;6045;42.682;23.294;2023-07-31T06:38:26;94354.03;;;26.69;55.70
11971;BME280;6045;42.682;23.294;2023-07-31T06:40:53;94356.94;;;27.05;54.23
11971;BME280;6045;42.682;23.294;2023-07-31T06:43:20;94361.91;;;27.36;54.32
11971;BME280;6045;42.682;23.294;2023-07-31T06:45:47;94365.41;;;27.69;53.40
11971;BME280;6045;42.682;23.294;2023-07-31T06:48:15;94356.78;;;28.19;51.95
11971;BME280;6045;42.682;23.294;2023-07-31T06:50:44;94350.50;;;28.59;50.30
11971;BME280;6045;42.682;23.294;2023-07-31T06:53:10;94360.59;;;28.67;49.44
11971;BME280;6045;42.682;23.294;2023-07-31T06:55:40;94357.94;;;28.98;50.09
11971;BME280;6045;42.682;23.294;2023-07-31T06:58:07;94357.75;;;29.06;49.02
11971;BME280;6045;42.682;23.294;2023-07-31T07:00:33;94358.72;;;29.26;47.63
11971;BME280;6045;42.682;23.294;2023-07-31T07:03:00;94357.41;;;28.53;48.55
11971;BME280;6045;42.682;23.294;2023-07-31T07:05:27;94358.66;;;28.03;49.75
11971;BME280;6045;42.682;23.294;2023-07-31T07:07:55;94364.59;;;27.69;51.68
11971;BME280;6045;42.682;23.294;2023-07-31T07:10:22;94363.09;;;27.47;51.72
11971;BME280;6045;42.682;23.294;2023-07-31T07:12:48;94355.09;;;27.42;52.76
11971;BME280;6045;42.682;23.294;2023-07-31T07:15:15;94364.53;;;27.33;53.59
11971;BME280;6045;42.682;23.294;2023-07-31T07:17:42;94352.59;;;27.86;52.98
11971;BME280;6045;42.682;23.294;2023-07-31T07:20:09;94353.72;;;28.21;49.96
11971;BME280;6045;42.682;23.294;2023-07-31T07:22:36;94358.56;;;28.52;49.00
11971;BME280;6045;42.682;23.294;2023-07-31T07:25:05;94353.34;;;28.74;48.31
11971;BME280;6045;42.682;23.294;2023-07-31T07:27:33;94350.66;;;28.90;47.39
11971;BME280;6045;42.682;23.294;2023-07-31T07:29:59;94354.28;;;29.37;47.12
11971;BME280;6045;42.682;23.294;2023-07-31T07:32:26;94360.94;;;28.93;46.70
11971;BME280;6045;42.682;23.294;2023-07-31T07:34:53;94352.88;;;29.28;48.12
11971;BME280;6045;42.682;23.294;2023-07-31T07:37:21;94352.72;;;29.83;46.70
11971;BME280;6045;42.682;23.294;2023-07-31T07:39:48;94351.31;;;30.24;45.59
11971;BME280;6045;42.682;23.294;2023-07-31T07:42:16;94350.81;;;30.53;44.78
11971;BME280;6045;42.682;23.294;2023-07-31T07:44:43;94361.13;;;30.75;43.00
11971;BME280;6045;42.682;23.294;2023-07-31T07:47:10;94359.13;;;30.03;42.79
11971;BME280;6045;42.682;23.294;2023-07-31T07:49:36;94369.69;;;29.69;46.04
11971;BME280;6045;42.682;23.294;2023-07-31T07:52:04;94360.25;;;29.70;44.77
11971;BME280;6045;42.682;23.294;2023-07-31T07:54:31;94362.66;;;30.03;43.79
11971;BME280;6045;42.682;23.294;2023-07-31T07:56:58;94365.34;;;30.50;43.43
11971;BME280;6045;42.682;23.294;2023-07-31T07:59:27;94369.56;;;30.63;42.35
11971;BME280;6045;42.682;23.294;2023-07-31T08:01:53;94369.28;;;30.87;42.07
11971;BME280;6045;42.682;23.294;2023-07-31T08:04:20;94366.09;;;30.66;42.27
11971;BME280;6045;42.682;23.294;2023-07-31T08:06:47;94374.47;;;30.04;43.28
11971;BME280;6045;42.682;23.294;2023-07-31T08:09:14;94367.63;;;30.13;43.51
11971;BME280;6045;42.682;23.294;2023-07-31T08:11:40;94368.16;;;30.19;43.19
11971;BME280;6045;42.682;23.294;2023-07-31T08:14:07;94379.03;;;30.12;43.94
11971;BME280;6045;42.682;23.294;2023-07-31T08:16:35;94373.41;;;30.08;43.43
11971;BME280;6045;42.682;23.294;2023-07-31T08:19:02;94370.91;;;30.19;42.61
11971;BME280;6045;42.682;23.294;2023-07-31T08:21:29;94376.13;;;30.39;43.59
11971;BME280;6045;42.682;23.294;2023-07-31T08:23:56;94373.78;;;30.07;42.75
11971;BME280;6045;42.682;23.294;2023-07-31T08:26:23;94374.13;;;29.27;43.58
11971;BME280;6045;42.682;23.294;2023-07-31T08:28:50;94367.59;;;28.64;44.48
11971;BME280;6045;42.682;23.294;2023-07-31T08:31:16;94375.13;;;28.27;46.03
11971;BME280;6045;42.682;23.294;2023-07-31T08:33:45;94375.78;;;28.24;46.97
11971;BME280;6045;42.682;23.294;2023-07-31T08:36:12;94371.50;;;28.63;46.00
11971;BME280;6045;42.682;23.294;2023-07-31T08:38:38;94378.84;;;29.14;44.64
11971;BME280;6045;42.682;23.294;2023-07-31T08:41:05;94365.03;;;29.42;42.58
11971;BME280;6045;42.682;23.294;2023-07-31T08:43:32;94363.72;;;29.36;43.29
11971;BME280;6045;42.682;23.294;2023-07-31T08:46:00;94361.22;;;29.31;42.98
11971;BME280;6045;42.682;23.294;2023-07-31T08:48:29;94363.63;;;29.64;43.41
11971;BME280;6045;42.682;23.294;2023-07-31T08:50:59;94358.94;;;29.64;44.58
11971;BME280;6045;42.682;23.294;2023-07-31T08:53:25;94361.44;;;29.85;42.10
11971;BME280;6045;42.682;23.294;2023-07-31T08:55:54;94368.44;;;30.14;43.20
11971;BME280;6045;42.682;23.294;2023-07-31T08:58:23;94356.75;;;30.55;41.65
11971;BME280;6045;42.682;23.294;2023-07-31T09:00:52;94362.16;;;30.86;40.82
11971;BME280;6045;42.682;23.294;2023-07-31T09:03:23;94367.28;;;31.26;39.62
11971;BME280;6045;42.682;23.294;2023-07-31T09:05:51;94365.09;;;31.35;39.36
11971;BME280;6045;42.682;23.294;2023-07-31T09:08:21;94363.03;;;30.90;39.30
11971;BME280;6045;42.682;23.294;2023-07-31T09:10:48;94352.84;;;30.56;41.76
11971;BME280;6045;42.682;23.294;2023-07-31T09:13:16;94360.03;;;30.80;40.48
11971;BME280;6045;42.682;23.294;2023-07-31T09:15:44;94352.81;;;31.33;39.97
11971;BME280;6045;42.682;23.294;2023-07-31T09:18:11;94356.84;;;31.81;36.75
11971;BME280;6045;42.682;23.294;2023-07-31T09:20:39;94357.09;;;31.72;37.83
11971;BME280;6045;42.682;23.294;2023-07-31T09:23:08;94344.78;;;31.05;39.12
11971;BME280;6045;42.682;23.294;2023-07-31T09:25:37;94352.44;;;30.73;40.29
11971;BME280;6045;42.682;23.294;2023-07-31T09:28:07;94348.03;;;30.53;41.45
11971;BME280;6045;42.682;23.294;2023-07-31T09:30:46;94338.16;;;30.17;41.59
11971;BME280;6045;42.682;23.294;2023-07-31T09:33:13;94332.09;;;30.27;41.82
11971;BME280;6045;42.682;23.294;2023-07-31T09:35:40;94335.34;;;31.06;41.06
11971;BME280;6045;42.682;23.294;2023-07-31T09:38:10;94335.94;;;31.83;39.28
11971;BME280;6045;42.682;23.294;2023-07-31T09:40:40;94334.91;;;31.91;37.75
11971;BME280;6045;42.682;23.294;2023-07-31T09:43:09;94338.91;;;32.20;38.34
11971;BME280;6045;42.682;23.294;2023-07-31T09:45:38;94328.50;;;32.66;37.05
11971;BME280;6045;42.682;23.294;2023-07-31T09:48:07;94332.38;;;32.91;35.76
11971;BME280;6045;42.682;23.294;2023-07-31T09:50:36;94322.50;;;32.90;35.71
11971;BME280;6045;42.682;23.294;2023-07-31T09:53:03;94324.31;;;33.08;35.56
11971;BME280;6045;42.682;23.294;2023-07-31T09:55:31;94322.84;;;33.22;35.96
11971;BME280;6045;42.682;23.294;2023-07-31T09:58:02;94322.44;;;33.20;34.70
11971;BME280;6045;42.682;23.294;2023-07-31T10:00:31;94322.38;;;33.13;35.18
11971;BME280;6045;42.682;23.294;2023-07-31T10:02:59;94325.66;;;32.59;34.64
11971;BME280;6045;42.682;23.294;2023-07-31T10:05:30;94319.66;;;31.33;36.26
11971;BME280;6045;42.682;23.294;2023-07-31T10:07:57;94325.06;;;31.26;37.94
11971;BME280;6045;42.682;23.294;2023-07-31T10:10:25;94317.66;;;31.30;36.42
11971;BME280;6045;42.682;23.294;2023-07-31T10:12:53;94325.69;;;31.16;37.90
11971;BME280;6045;42.682;23.294;2023-07-31T10:15:22;94326.00;;;31.78;37.13
11971;BME280;6045;42.682;23.294;2023-07-31T10:17:49;94320.72;;;32.49;36.25
11971;BME280;6045;42.682;23.294;2023-07-31T10:20:17;94317.84;;;33.01;34.73
11971;BME280;6045;42.682;23.294;2023-07-31T10:22:44;94315.25;;;33.12;34.95
11971;BME280;6045;42.682;23.294;2023-07-31T10:25:12;94309.63;;;33.45;33.73
11971;BME280;6045;42.682;23.294;2023-07-31T10:27:39;94314.44;;;33.11;34.25
11971;BME280;6045;42.682;23.294;2023-07-31T10:30:08;94316.81;;;33.13;34.93
11971;BME280;6045;42.682;23.294;2023-07-31T10:32:38;94306.06;;;33.44;33.18
11971;BME280;6045;42.682;23.294;2023-07-31T10:35:08;94311.78;;;33.58;34.09
11971;BME280;6045;42.682;23.294;2023-07-31T10:37:39;94304.28;;;33.62;34.14
11971;BME280;6045;42.682;23.294;2023-07-31T10:40:10;94304.47;;;33.84;33.22
11971;BME280;6045;42.682;23.294;2023-07-31T10:42:38;94303.59;;;32.99;32.77
11971;BME280;6045;42.682;23.294;2023-07-31T10:45:13;94300.41;;;32.97;33.60
11971;BME280;6045;42.682;23.294;2023-07-31T10:47:45;94301.03;;;33.17;34.51
11971;BME280;6045;42.682;23.294;2023-07-31T10:50:19;94296.13;;;33.03;34.13
11971;BME280;6045;42.682;23.294;2023-07-31T10:52:50;94305.00;;;33.16;34.33
11971;BME280;6045;42.682;23.294;2023-07-31T10:55:29;94292.84;;;33.67;33.92
11971;BME280;6045;42.682;23.294;2023-07-31T10:57:57;94296.84;;;33.73;32.21
11971;BME280;6045;42.682;23.294;2023-07-31T11:00:26;94286.13;;;33.72;31.99
11971;BME280;6045;42.682;23.294;2023-07-31T11:03:00;94287.19;;;34.04;30.95
11971;BME280;6045;42.682;23.294;2023-07-31T11:05:45;94287.28;;;33.67;31.59
11971;BME280;6045;42.682;23.294;2023-07-31T11:08:13;94287.47;;;33.89;31.50
11971;BME280;6045;42.682;23.294;2023-07-31T11:10:40;94279.09;;;33.82;30.79
11971;BME280;6045;42.682;23.294;2023-07-31T11:13:06;94276.94;;;33.61;31.89
11971;BME280;6045;42.682;23.294;2023-07-31T11:15:33;94274.13;;;33.57;31.50
11971;BME280;6045;42.682;23.294;2023-07-31T11:18:02;94277.16;;;33.42;31.71
11971;BME280;6045;42.682;23.294;2023-07-31T11:20:31;94282.50;;;33.21;32.15
11971;BME280;6045;42.682;23.294;2023-07-31T11:22:59;94283.41;;;32.98;32.63
11971;BME280;6045;42.682;23.294;2023-07-31T11:25:28;94269.53;;;33.35;32.32
11971;BME280;6045;42.682;23.294;2023-07-31T11:27:55;94270.31;;;33.72;30.69
11971;BME280;6045;42.682;23.294;2023-07-31T11:30:22;94274.72;;;33.81;29.67
11971;BME280;6045;42.682;23.294;2023-07-31T11:32:49;94265.56;;;33.77;30.81
11971;BME280;6045;42.682;23.294;2023-07-31T11:35:18;94272.69;;;33.74;30.76
11971;BME280;6045;42.682;23.294;2023-07-31T11:37:44;94287.63;;;33.22;31.70
11971;BME280;6045;42.682;23.294;2023-07-31T11:40:12;94285.94;;;32.48;33.48
11971;BME280;6045;42.682;23.294;2023-07-31T11:42:38;94280.69;;;32.09;33.73
11971;BME280;6045;42.682;23.294;2023-07-31T11:45:06;94282.03;;;32.22;34.51
11971;BME280;6045;42.682;23.294;2023-07-31T11:47:35;94278.59;;;32.59;33.43
11971;BME280;6045;42.682;23.294;2023-07-31T11:50:04;94268.66;;;32.87;34.05
11971;BME280;6045;42.682;23.294;2023-07-31T11:52:39;94262.91;;;33.03;31.80
11971;BME280;6045;42.682;23.294;2023-07-31T11:55:09;94260.81;;;32.96;32.85
11971;BME280;6045;42.682;23.294;2023-07-31T11:57:38;94259.78;;;33.08;31.54
11971;BME280;6045;42.682;23.294;2023-07-31T12:00:08;94260.28;;;33.17;32.78
11971;BME280;6045;42.682;23.294;2023-07-31T12:02:36;94263.16;;;33.31;32.18
11971;BME280;6045;42.682;23.294;2023-07-31T12:05:05;94256.75;;;33.24;32.20
11971;BME280;6045;42.682;23.294;2023-07-31T12:07:44;94264.00;;;33.35;33.16
11971;BME280;6045;42.682;23.294;2023-07-31T12:10:23;94262.41;;;33.34;32.93
11971;BME280;6045;42.682;23.294;2023-07-31T12:12:59;94256.88;;;33.34;32.00
11971;BME280;6045;42.682;23.294;2023-07-31T12:15:33;94253.69;;;33.32;32.74
11971;BME280;6045;42.682;23.294;2023-07-31T12:18:00;94248.81;;;33.62;33.50
11971;BME280;6045;42.682;23.294;2023-07-31T12:20:27;94240.56;;;33.73;32.78
11971;BME280;6045;42.682;23.294;2023-07-31T12:22:57;94242.97;;;33.78;32.73
11971;BME280;6045;42.682;23.294;2023-07-31T12:25:29;94249.50;;;33.52;33.40
11971;BME280;6045;42.682;23.294;2023-07-31T12:27:55;94238.34;;;33.45;33.36
11971;BME280;6045;42.682;23.294;2023-07-31T12:30:29;94237.13;;;33.43;32.30
11971;BME280;6045;42.682;23.294;2023-07-31T12:32:56;94243.63;;;33.54;32.86
11971;BME280;6045;42.682;23.294;2023-07-31T12:35:23;94236.88;;;33.55;33.30
11971;BME280;6045;42.682;23.294;2023-07-31T12:37:50;94243.84;;;33.38;32.13
11971;BME280;6045;42.682;23.294;2023-07-31T12:40:18;94240.91;;;33.21;31.83
11971;BME280;6045;42.682;23.294;2023-07-31T12:42:44;94243.22;;;33.12;32.91
11971;BME280;6045;42.682;23.294;2023-07-31T12:45:11;94234.59;;;32.87;31.95
11971;BME280;6045;42.682;23.294;2023-07-31T12:47:38;94235.53;;;32.65;32.71
11971;BME280;6045;42.682;23.294;2023-07-31T12:50:06;94232.78;;;32.35;34.23
11971;BME280;6045;42.682;23.294;2023-07-31T12:52:33;94231.03;;;31.94;33.93
11971;BME280;6045;42.682;23.294;2023-07-31T12:55:00;94227.28;;;31.53;34.83
11971;BME280;6045;42.682;23.294;2023-07-31T12:57:28;94227.59;;;31.48;35.03
11971;BME280;6045;42.682;23.294;2023-07-31T12:59:55;94228.44;;;31.29;34.91
11971;BME280;6045;42.682;23.294;2023-07-31T13:02:22;94227.59;;;31.25;34.30
11971;BME280;6045;42.682;23.294;2023-07-31T13:04:49;94213.53;;;30.88;35.55